createdAt,value
2022-10-02T00:00:16.577Z,50.852623
2022-10-02T00:01:16.618Z,50.852654
2022-10-02T00:02:16.578Z,50.852745
2022-10-02T00:03:16.559Z,50.852798
2022-10-02T00:04:16.655Z,50.852695
2022-10-02T00:05:16.540Z,50.852764
2022-10-02T00:06:16.555Z,50.852768
2022-10-02T00:07:16.534Z,50.852829
2022-10-02T00:08:18.134Z,50.852737
2022-10-02T00:09:16.517Z,50.852806
2022-10-02T00:10:16.510Z,50.852787
2022-10-02T00:11:16.527Z,50.852791
2022-10-02T00:12:16.517Z,50.852932
2022-10-02T00:13:16.512Z,50.852840
2022-10-02T00:14:16.494Z,50.852760
2022-10-02T00:15:16.486Z,50.852810
2022-10-02T00:16:16.517Z,50.852760
2022-10-02T00:17:16.461Z,50.852795
2022-10-02T00:18:16.458Z,50.852772
2022-10-02T00:19:16.465Z,50.852810
2022-10-02T00:20:16.449Z,50.852837
2022-10-02T00:21:16.469Z,50.852791
2022-10-02T00:22:16.433Z,50.852764
2022-10-02T00:23:16.421Z,50.852795
2022-10-02T00:24:16.414Z,50.852768
2022-10-02T00:25:16.429Z,50.852776
2022-10-02T00:26:16.414Z,50.852825
2022-10-02T00:27:16.401Z,50.852829
2022-10-02T00:28:16.456Z,50.852802
2022-10-02T00:29:16.379Z,50.852783
2022-10-02T00:30:16.371Z,50.852837
2022-10-02T00:31:16.464Z,50.852829
2022-10-02T00:32:16.376Z,50.852917
2022-10-02T00:33:16.354Z,50.852879
2022-10-02T00:34:16.351Z,50.852821
2022-10-02T00:35:16.347Z,50.852718
2022-10-02T00:36:16.342Z,50.852806
2022-10-02T00:37:16.351Z,50.852695
2022-10-02T00:38:16.331Z,50.852669
2022-10-02T00:39:16.327Z,50.852852
2022-10-02T00:40:16.311Z,50.852783
2022-10-02T00:41:16.324Z,50.852943
2022-10-02T00:42:16.306Z,50.852741
2022-10-02T00:43:16.331Z,50.852718
2022-10-02T00:44:16.295Z,50.852551
2022-10-02T00:45:16.307Z,50.852829
2022-10-02T00:46:16.324Z,50.852787
2022-10-02T00:47:16.283Z,50.852825
2022-10-02T00:48:16.271Z,50.853001
2022-10-02T00:49:16.301Z,50.852821
2022-10-02T00:50:16.267Z,50.852924
2022-10-02T00:51:16.242Z,50.852806
2022-10-02T00:52:16.243Z,50.852657
2022-10-02T00:53:16.230Z,50.852871
2022-10-02T00:54:16.249Z,50.852741
2022-10-02T00:55:16.212Z,50.852737
2022-10-02T00:56:16.230Z,50.852863
2022-10-02T00:57:16.201Z,50.852856
2022-10-02T00:58:16.194Z,50.852825
2022-10-02T00:59:16.186Z,50.852772
2022-10-02T01:00:16.205Z,50.852821
2022-10-02T01:01:16.320Z,50.852802
2022-10-02T01:02:16.225Z,50.852848
2022-10-02T01:03:16.164Z,50.852810
2022-10-02T01:04:16.157Z,50.852753
2022-10-02T01:05:16.150Z,50.852688
2022-10-02T01:06:16.179Z,50.852737
2022-10-02T01:07:16.124Z,50.852737
2022-10-02T01:08:16.119Z,50.852802
2022-10-02T01:09:16.121Z,50.852661
2022-10-02T01:10:16.120Z,50.852695
2022-10-02T01:11:16.101Z,50.852741
2022-10-02T01:12:16.135Z,50.852798
2022-10-02T01:13:16.101Z,50.852764
2022-10-02T01:14:16.079Z,50.852779
2022-10-02T01:15:16.076Z,50.852768
2022-10-02T01:16:16.110Z,50.852779
2022-10-02T01:17:16.092Z,50.852760
2022-10-02T01:18:16.047Z,50.852806
2022-10-02T01:19:16.042Z,50.852726
2022-10-02T01:20:16.048Z,50.852665
2022-10-02T01:21:16.057Z,50.852776
2022-10-02T01:22:16.031Z,50.852776
2022-10-02T01:23:16.040Z,50.852772
2022-10-02T01:24:16.035Z,50.852821
2022-10-02T01:25:16.014Z,50.852734
2022-10-02T01:26:16.007Z,50.852760
2022-10-02T01:27:16.002Z,50.852699
2022-10-02T01:28:16.048Z,50.852875
2022-10-02T01:29:15.982Z,50.852715
2022-10-02T01:30:16.000Z,50.852959
2022-10-02T01:31:16.088Z,50.852959
2022-10-02T01:32:15.970Z,50.852959
2022-10-02T01:33:15.968Z,50.852943
2022-10-02T01:34:15.954Z,50.852886
2022-10-02T01:35:15.935Z,50.852757
2022-10-02T01:36:15.978Z,50.853081
2022-10-02T01:37:15.931Z,50.853188
2022-10-02T01:38:15.954Z,50.853275
2022-10-02T01:39:15.907Z,50.853291
2022-10-02T01:40:15.905Z,50.853298
2022-10-02T01:41:15.897Z,50.853237
2022-10-02T01:42:15.885Z,50.853249
2022-10-02T01:43:15.910Z,50.853336
2022-10-02T01:44:15.880Z,50.853230
2022-10-02T01:45:15.878Z,50.853317
2022-10-02T01:46:15.936Z,50.853100
2022-10-02T01:47:15.854Z,50.853233
2022-10-02T01:48:15.858Z,50.853218
2022-10-02T01:49:15.860Z,50.853134
2022-10-02T01:50:15.838Z,50.853279
2022-10-02T01:51:15.833Z,50.853123
2022-10-02T01:52:15.827Z,50.853004
2022-10-02T01:53:15.819Z,50.853069
2022-10-02T01:54:15.812Z,50.852993
2022-10-02T01:55:15.824Z,50.853039
2022-10-02T01:56:15.795Z,50.852871
2022-10-02T01:57:15.817Z,50.852802
2022-10-02T01:58:15.785Z,50.852688
2022-10-02T01:59:15.771Z,50.852684
2022-10-02T02:00:15.776Z,50.852745
2022-10-02T02:01:15.842Z,50.852657
2022-10-02T02:02:15.796Z,50.852665
2022-10-02T02:03:15.750Z,50.852745
2022-10-02T02:04:15.741Z,50.852673
2022-10-02T02:05:15.728Z,50.852760
2022-10-02T02:06:15.735Z,50.852703
2022-10-02T02:07:15.746Z,50.852753
2022-10-02T02:08:15.723Z,50.852711
2022-10-02T02:09:15.702Z,50.852730
2022-10-02T02:10:15.702Z,50.852844
2022-10-02T02:11:15.725Z,50.852638
2022-10-02T02:12:15.696Z,50.852711
2022-10-02T02:13:15.689Z,50.852818
2022-10-02T02:14:15.677Z,50.852821
2022-10-02T02:15:15.674Z,50.852566
2022-10-02T02:16:15.709Z,50.852673
2022-10-02T02:17:15.662Z,50.852692
2022-10-02T02:18:15.655Z,50.852715
2022-10-02T02:19:15.652Z,50.852661
2022-10-02T02:20:15.659Z,50.852703
2022-10-02T02:21:15.637Z,50.852753
2022-10-02T02:22:15.627Z,50.852699
2022-10-02T02:23:15.618Z,50.852737
2022-10-02T02:24:15.619Z,50.852802
2022-10-02T02:25:15.598Z,50.852680
2022-10-02T02:26:15.623Z,50.852711
2022-10-02T02:27:15.582Z,50.852718
2022-10-02T02:28:15.684Z,50.852879
2022-10-02T02:29:15.573Z,50.852745
2022-10-02T02:30:15.569Z,50.852760
2022-10-02T02:31:15.625Z,50.852757
2022-10-02T02:32:15.565Z,50.852802
2022-10-02T02:33:15.575Z,50.852749
2022-10-02T02:34:15.553Z,50.852760
2022-10-02T02:35:15.547Z,50.852730
2022-10-02T02:36:15.534Z,50.852760
2022-10-02T02:37:15.536Z,50.852741
2022-10-02T02:38:15.517Z,50.852722
2022-10-02T02:39:15.534Z,50.852707
2022-10-02T02:40:15.501Z,50.852734
2022-10-02T02:41:15.514Z,50.852722
2022-10-02T02:42:17.836Z,50.852776
2022-10-02T02:43:15.517Z,50.852745
2022-10-02T02:44:15.477Z,50.852764
2022-10-02T02:45:15.465Z,50.852737
2022-10-02T02:46:15.506Z,50.852726
2022-10-02T02:47:15.451Z,50.852741
2022-10-02T02:48:15.468Z,50.852722
2022-10-02T02:49:15.437Z,50.852695
2022-10-02T02:50:15.433Z,50.852680
2022-10-02T02:51:15.433Z,50.852661
2022-10-02T02:52:15.454Z,50.852699
2022-10-02T02:53:15.445Z,50.852734
2022-10-02T02:54:15.405Z,50.852757
2022-10-02T02:55:15.406Z,50.852741
2022-10-02T02:56:15.434Z,50.852757
2022-10-02T02:57:15.395Z,50.852749
2022-10-02T02:58:15.392Z,50.852722
2022-10-02T02:59:15.374Z,50.852688
2022-10-02T03:00:15.376Z,50.852757
2022-10-02T03:01:15.453Z,50.852661
2022-10-02T03:02:15.393Z,50.852787
2022-10-02T03:03:15.366Z,50.852848
2022-10-02T03:04:15.356Z,50.852867
2022-10-02T03:05:15.361Z,50.852917
2022-10-02T03:06:15.353Z,50.853027
2022-10-02T03:07:15.354Z,50.853046
2022-10-02T03:08:15.330Z,50.852917
2022-10-02T03:09:15.329Z,50.852909
2022-10-02T03:10:15.315Z,50.852940
2022-10-02T03:11:15.318Z,50.852852
2022-10-02T03:12:15.328Z,50.852875
2022-10-02T03:13:15.305Z,50.852776
2022-10-02T03:14:15.293Z,50.852776
2022-10-02T03:15:15.289Z,50.852921
2022-10-02T03:16:15.330Z,50.852898
2022-10-02T03:17:15.302Z,50.852802
2022-10-02T03:18:15.280Z,50.852810
2022-10-02T03:19:15.268Z,50.852913
2022-10-02T03:20:15.259Z,50.852882
2022-10-02T03:21:15.248Z,50.852730
2022-10-02T03:22:15.250Z,50.852718
2022-10-02T03:23:15.263Z,50.852802
2022-10-02T03:24:15.258Z,50.852753
2022-10-02T03:25:15.245Z,50.852757
2022-10-02T03:26:15.228Z,50.852722
2022-10-02T03:27:15.218Z,50.852730
2022-10-02T03:28:15.256Z,50.852791
2022-10-02T03:29:15.213Z,50.852776
2022-10-02T03:30:15.213Z,50.852585
2022-10-02T03:31:15.248Z,50.852669
2022-10-02T03:32:15.192Z,50.852692
2022-10-02T03:33:15.184Z,50.852745
2022-10-02T03:34:15.171Z,50.852806
2022-10-02T03:35:15.162Z,50.852802
2022-10-02T03:36:15.166Z,50.852859
2022-10-02T03:37:15.187Z,50.852806
2022-10-02T03:38:15.147Z,50.852768
2022-10-02T03:39:30.466Z,50.852779
2022-10-02T03:40:16.137Z,50.852772
2022-10-02T03:41:15.126Z,50.852760
2022-10-02T03:42:15.125Z,50.852772
2022-10-02T03:43:15.134Z,50.852795
2022-10-02T03:44:15.108Z,50.852768
2022-10-02T03:45:32.767Z,50.852779
2022-10-02T03:46:16.160Z,50.852806
2022-10-02T03:47:15.115Z,50.852844
2022-10-02T03:48:15.085Z,50.852840
2022-10-02T03:49:15.079Z,50.852810
2022-10-02T03:50:15.089Z,50.852787
2022-10-02T03:51:15.063Z,50.852818
2022-10-02T03:52:15.063Z,50.852802
2022-10-02T03:53:15.073Z,50.852745
2022-10-02T03:54:15.049Z,50.852760
2022-10-02T03:55:15.040Z,50.852779
2022-10-02T03:56:15.062Z,50.852814
2022-10-02T03:57:15.033Z,50.852818
2022-10-02T03:58:15.029Z,50.852745
2022-10-02T03:59:15.015Z,50.852821
2022-10-02T04:00:15.036Z,50.852814
2022-10-02T04:01:15.041Z,50.852833
2022-10-02T04:02:15.036Z,50.852837
2022-10-02T04:03:15.045Z,50.852879
2022-10-02T04:04:14.995Z,50.852821
2022-10-02T04:05:14.995Z,50.852867
2022-10-02T04:06:14.981Z,50.852795
2022-10-02T04:07:14.962Z,50.852818
2022-10-02T04:08:14.959Z,50.852779
2022-10-02T04:09:14.977Z,50.852829
2022-10-02T04:10:14.948Z,50.852798
2022-10-02T04:11:14.941Z,50.852760
2022-10-02T04:12:14.948Z,50.852863
2022-10-02T04:13:14.941Z,50.852856
2022-10-02T04:14:14.922Z,50.852844
2022-10-02T04:15:14.941Z,50.852898
2022-10-02T04:16:14.957Z,50.852795
2022-10-02T04:17:14.903Z,50.852791
2022-10-02T04:18:14.899Z,50.852871
2022-10-02T04:19:14.886Z,50.852837
2022-10-02T04:20:14.887Z,50.852779
2022-10-02T04:21:14.913Z,50.852882
2022-10-02T04:22:14.869Z,50.852829
2022-10-02T04:23:14.855Z,50.852798
2022-10-02T04:24:14.854Z,50.852791
2022-10-02T04:25:14.847Z,50.852852
2022-10-02T04:26:14.849Z,50.852886
2022-10-02T04:27:14.849Z,50.852901
2022-10-02T04:28:14.910Z,50.852898
2022-10-02T04:29:14.823Z,50.852940
2022-10-02T04:30:14.819Z,50.852894
2022-10-02T04:31:14.862Z,50.852940
2022-10-02T04:32:14.832Z,50.852909
2022-10-02T04:33:14.797Z,50.852924
2022-10-02T04:34:14.797Z,50.852875
2022-10-02T04:35:14.802Z,50.852951
2022-10-02T04:36:14.784Z,50.852730
2022-10-02T04:37:14.762Z,50.852867
2022-10-02T04:38:14.757Z,50.852856
2022-10-02T04:39:14.772Z,50.852901
2022-10-02T04:40:14.739Z,50.852760
2022-10-02T04:41:14.792Z,50.852657
2022-10-02T04:42:14.736Z,50.852745
2022-10-02T04:43:14.729Z,50.852669
2022-10-02T04:44:14.721Z,50.852795
2022-10-02T04:45:14.715Z,50.852791
2022-10-02T04:46:14.727Z,50.852802
2022-10-02T04:47:14.725Z,50.852726
2022-10-02T04:48:14.697Z,50.852894
2022-10-02T04:49:14.681Z,50.852962
2022-10-02T04:50:14.677Z,50.853043
2022-10-02T04:51:14.677Z,50.852867
2022-10-02T04:52:14.723Z,50.852852
2022-10-02T04:53:14.719Z,50.852798
2022-10-02T04:54:14.658Z,50.852818
2022-10-02T04:55:14.646Z,50.852863
2022-10-02T04:56:14.643Z,50.852924
2022-10-02T04:57:14.629Z,50.852863
2022-10-02T04:58:14.653Z,50.852825
2022-10-02T04:59:14.632Z,50.852848
2022-10-02T05:00:14.617Z,50.852837
2022-10-02T05:01:14.682Z,50.852852
2022-10-02T05:02:14.682Z,50.852821
2022-10-02T05:03:14.594Z,50.852810
2022-10-02T05:04:14.594Z,50.852798
2022-10-02T05:05:14.600Z,50.852787
2022-10-02T05:06:14.586Z,50.852791
2022-10-02T05:07:14.589Z,50.852829
2022-10-02T05:08:14.573Z,50.852837
2022-10-02T05:09:14.566Z,50.852776
2022-10-02T05:10:14.549Z,50.852749
2022-10-02T05:11:14.552Z,50.852829
2022-10-02T05:12:14.569Z,50.852837
2022-10-02T05:13:14.534Z,50.852814
2022-10-02T05:14:14.565Z,50.852776
2022-10-02T05:15:14.514Z,50.852791
2022-10-02T05:16:14.569Z,50.852802
2022-10-02T05:17:14.508Z,50.852871
2022-10-02T05:18:17.855Z,50.852837
2022-10-02T05:19:14.505Z,50.852974
2022-10-02T05:20:14.489Z,50.852970
2022-10-02T05:21:14.488Z,50.852787
2022-10-02T05:22:14.476Z,50.852657
2022-10-02T05:23:14.475Z,50.852737
2022-10-02T05:24:14.487Z,50.852718
2022-10-02T05:25:14.471Z,50.852707
2022-10-02T05:26:14.679Z,50.852699
2022-10-02T05:27:14.468Z,50.852707
2022-10-02T05:28:14.460Z,50.852715
2022-10-02T05:29:14.434Z,50.852779
2022-10-02T05:30:14.448Z,50.852840
2022-10-02T05:31:14.461Z,50.852795
2022-10-02T05:32:14.414Z,50.852768
2022-10-02T05:33:14.421Z,50.852783
2022-10-02T05:34:14.398Z,50.852692
2022-10-02T05:35:14.409Z,50.852749
2022-10-02T05:36:14.389Z,50.852753
2022-10-02T05:37:14.379Z,50.852844
2022-10-02T05:38:14.373Z,50.852852
2022-10-02T05:39:14.363Z,50.852757
2022-10-02T05:40:14.359Z,50.852829
2022-10-02T05:41:14.382Z,50.852840
2022-10-02T05:42:14.334Z,50.852779
2022-10-02T05:43:14.330Z,50.852802
2022-10-02T05:44:14.324Z,50.852909
2022-10-02T05:45:14.316Z,50.852879
2022-10-02T05:46:14.358Z,50.852879
2022-10-02T05:47:14.325Z,50.852806
2022-10-02T05:48:14.295Z,50.852806
2022-10-02T05:49:14.284Z,50.852844
2022-10-02T05:50:14.282Z,50.852757
2022-10-02T05:51:14.271Z,50.852734
2022-10-02T05:52:14.271Z,50.852726
2022-10-02T05:53:14.282Z,50.852821
2022-10-02T05:54:14.252Z,50.852791
2022-10-02T05:55:14.246Z,50.852665
2022-10-02T05:56:14.244Z,50.852833
2022-10-02T05:57:14.233Z,50.852825
2022-10-02T05:58:14.245Z,50.852692
2022-10-02T05:59:14.224Z,50.852806
2022-10-02T06:00:14.215Z,50.852867
2022-10-02T06:01:14.238Z,50.852798
2022-10-02T06:02:14.225Z,50.852718
2022-10-02T06:03:14.184Z,50.852772
2022-10-02T06:04:14.212Z,50.852718
2022-10-02T06:05:14.176Z,50.852741
2022-10-02T06:06:14.177Z,50.852818
2022-10-02T06:07:14.163Z,50.852867
2022-10-02T06:08:14.183Z,50.852840
2022-10-02T06:09:19.008Z,50.852776
2022-10-02T06:10:14.146Z,50.852779
2022-10-02T06:11:14.140Z,50.852806
2022-10-02T06:12:14.155Z,50.852787
2022-10-02T06:13:14.156Z,50.852871
2022-10-02T06:14:14.145Z,50.852806
2022-10-02T06:15:14.115Z,50.852760
2022-10-02T06:16:14.162Z,50.852795
2022-10-02T06:17:14.096Z,50.852753
2022-10-02T06:18:14.105Z,50.852730
2022-10-02T06:19:14.077Z,50.852856
2022-10-02T06:20:14.072Z,50.852715
2022-10-02T06:21:14.070Z,50.852699
2022-10-02T06:22:14.064Z,50.852764
2022-10-02T06:23:14.072Z,50.852707
2022-10-02T06:24:14.053Z,50.852646
2022-10-02T06:25:14.049Z,50.852760
2022-10-02T06:26:14.038Z,50.852798
2022-10-02T06:27:14.031Z,50.852791
2022-10-02T06:28:14.122Z,50.852791
2022-10-02T06:29:18.644Z,50.852779
2022-10-02T06:30:14.011Z,50.852718
2022-10-02T06:31:14.062Z,50.852749
2022-10-02T06:32:14.000Z,50.852722
2022-10-02T06:33:13.984Z,50.852795
2022-10-02T06:34:14.003Z,50.852734
2022-10-02T06:35:13.963Z,50.852631
2022-10-02T06:36:13.961Z,50.852669
2022-10-02T06:37:13.953Z,50.852718
2022-10-02T06:38:13.946Z,50.852703
2022-10-02T06:39:13.963Z,50.852707
2022-10-02T06:40:13.938Z,50.852726
2022-10-02T06:41:13.930Z,50.852726
2022-10-02T06:42:13.921Z,50.852722
2022-10-02T06:43:13.907Z,50.852768
2022-10-02T06:44:13.903Z,50.852699
2022-10-02T06:45:13.921Z,50.852676
2022-10-02T06:46:14.047Z,50.852715
2022-10-02T06:47:13.878Z,50.852741
2022-10-02T06:48:13.874Z,50.852730
2022-10-02T06:49:13.873Z,50.852703
2022-10-02T06:50:13.874Z,50.852711
2022-10-02T06:51:13.869Z,50.852673
2022-10-02T06:52:13.847Z,50.852680
2022-10-02T06:53:13.840Z,50.852684
2022-10-02T06:54:13.838Z,50.852722
2022-10-02T06:55:13.824Z,50.852722
2022-10-02T06:56:13.848Z,50.852711
2022-10-02T06:57:13.807Z,50.852680
2022-10-02T06:58:13.817Z,50.852631
2022-10-02T06:59:13.802Z,50.852592
2022-10-02T07:00:13.794Z,50.852566
2022-10-02T07:01:13.866Z,50.852535
2022-10-02T07:02:13.803Z,50.852600
2022-10-02T07:03:13.784Z,50.852673
2022-10-02T07:04:13.772Z,50.852718
2022-10-02T07:05:13.756Z,50.852673
2022-10-02T07:06:13.747Z,50.852661
2022-10-02T07:07:13.757Z,50.852695
2022-10-02T07:08:13.732Z,50.852772
2022-10-02T07:09:13.728Z,50.852726
2022-10-02T07:10:13.721Z,50.852623
2022-10-02T07:11:13.715Z,50.852764
2022-10-02T07:12:13.722Z,50.852657
2022-10-02T07:13:13.696Z,50.852890
2022-10-02T07:14:13.693Z,50.852520
2022-10-02T07:15:13.698Z,50.852810
2022-10-02T07:16:13.744Z,50.852898
2022-10-02T07:17:13.677Z,50.852810
2022-10-02T07:18:13.659Z,50.852512
2022-10-02T07:19:13.655Z,50.852524
2022-10-02T07:20:13.640Z,50.852642
2022-10-02T07:21:13.656Z,50.852673
2022-10-02T07:22:39.621Z,50.852646
2022-10-02T07:23:14.655Z,50.852642
2022-10-02T07:24:13.628Z,50.852642
2022-10-02T07:25:13.619Z,50.852737
2022-10-02T07:26:13.608Z,50.852718
2022-10-02T07:27:13.602Z,50.852703
2022-10-02T07:28:13.608Z,50.852814
2022-10-02T07:29:13.606Z,50.852802
2022-10-02T07:30:13.572Z,50.852753
2022-10-02T07:31:13.645Z,50.852875
2022-10-02T07:32:13.556Z,50.852791
2022-10-02T07:33:13.565Z,50.852764
2022-10-02T07:34:13.553Z,50.852741
2022-10-02T07:35:13.532Z,50.852524
2022-10-02T07:36:13.570Z,50.852680
2022-10-02T07:37:13.517Z,50.852528
2022-10-02T07:38:13.509Z,50.852634
2022-10-02T07:39:13.500Z,50.852615
2022-10-02T07:40:13.502Z,50.852726
2022-10-02T07:41:13.490Z,50.852783
2022-10-02T07:42:13.504Z,50.852871
2022-10-02T07:43:13.523Z,50.852894
2022-10-02T07:44:13.488Z,50.852665
2022-10-02T07:45:13.460Z,50.852692
2022-10-02T07:46:13.516Z,50.852581
2022-10-02T07:47:13.452Z,50.852604
2022-10-02T07:48:13.444Z,50.852768
2022-10-02T07:49:13.460Z,50.852646
2022-10-02T07:50:13.430Z,50.852535
2022-10-02T07:51:14.648Z,50.852654
2022-10-02T07:52:13.431Z,50.852772
2022-10-02T07:53:13.409Z,50.852657
2022-10-02T07:54:13.394Z,50.852642
2022-10-02T07:55:13.411Z,50.852558
2022-10-02T07:56:13.390Z,50.852436
2022-10-02T07:57:13.385Z,50.852589
2022-10-02T07:58:13.369Z,50.852596
2022-10-02T07:59:13.366Z,50.852863
2022-10-02T08:00:13.386Z,50.852711
2022-10-02T08:01:13.340Z,50.852821
2022-10-02T08:02:13.573Z,50.852600
2022-10-02T08:03:13.374Z,50.852482
2022-10-02T08:04:13.335Z,50.852707
2022-10-02T08:05:13.318Z,50.852627
2022-10-02T08:06:13.334Z,50.852692
2022-10-02T08:07:13.309Z,50.852783
2022-10-02T08:08:13.302Z,50.852608
2022-10-02T08:09:13.291Z,50.852577
2022-10-02T08:10:13.328Z,50.852436
2022-10-02T08:11:13.296Z,50.852512
2022-10-02T08:12:13.277Z,50.852684
2022-10-02T08:13:13.258Z,50.852566
2022-10-02T08:14:13.254Z,50.852566
2022-10-02T08:15:13.242Z,50.852566
2022-10-02T08:16:13.295Z,50.852814
2022-10-02T08:17:13.248Z,50.852886
2022-10-02T08:18:33.239Z,50.852718
2022-10-02T08:19:14.217Z,50.852726
2022-10-02T08:20:13.221Z,50.852692
2022-10-02T08:21:13.204Z,50.852558
2022-10-02T08:22:13.216Z,50.852543
2022-10-02T08:23:13.186Z,50.852604
2022-10-02T08:24:13.186Z,50.852673
2022-10-02T08:25:13.185Z,50.852638
2022-10-02T08:26:13.192Z,50.852699
2022-10-02T08:27:13.154Z,50.852772
2022-10-02T08:28:13.169Z,50.852757
2022-10-02T08:29:13.159Z,50.852898
2022-10-02T08:30:13.152Z,50.852818
2022-10-02T08:31:13.156Z,50.852791
2022-10-02T08:32:13.141Z,50.852757
2022-10-02T08:33:13.135Z,50.852745
2022-10-02T08:34:13.165Z,50.852760
2022-10-02T08:35:13.119Z,50.852783
2022-10-02T08:36:13.102Z,50.852730
2022-10-02T08:37:13.087Z,50.852745
2022-10-02T08:38:13.106Z,50.852734
2022-10-02T08:39:13.081Z,50.852634
2022-10-02T08:40:13.064Z,50.852596
2022-10-02T08:41:13.087Z,50.852669
2022-10-02T08:42:13.052Z,50.852741
2022-10-02T08:43:13.102Z,50.852737
2022-10-02T08:44:13.032Z,50.852741
2022-10-02T08:45:13.018Z,50.852684
2022-10-02T08:46:13.094Z,50.852699
2022-10-02T08:47:13.004Z,50.852798
2022-10-02T08:48:12.991Z,50.852768
2022-10-02T08:49:12.991Z,50.852654
2022-10-02T08:50:12.983Z,50.852776
2022-10-02T08:51:12.975Z,50.852737
2022-10-02T08:52:12.987Z,50.852737
2022-10-02T08:53:12.978Z,50.852734
2022-10-02T08:54:13.488Z,50.852726
2022-10-02T08:55:12.947Z,50.852650
2022-10-02T08:56:16.422Z,50.852688
2022-10-02T08:57:12.937Z,50.852833
2022-10-02T08:58:12.976Z,50.852726
2022-10-02T08:59:12.939Z,50.852718
2022-10-02T09:00:12.902Z,50.852776
2022-10-02T09:01:12.940Z,50.852676
2022-10-02T09:02:12.944Z,50.852760
2022-10-02T09:03:12.889Z,50.852875
2022-10-02T09:04:12.956Z,50.852787
2022-10-02T09:05:12.892Z,50.852749
2022-10-02T09:06:12.875Z,50.852753
2022-10-02T09:07:12.868Z,50.852806
2022-10-02T09:08:12.836Z,50.852718
2022-10-02T09:09:12.835Z,50.852779
2022-10-02T09:10:12.828Z,50.852673
2022-10-02T09:11:12.813Z,50.852638
2022-10-02T09:12:12.819Z,50.852631
2022-10-02T09:13:12.834Z,50.852642
2022-10-02T09:14:12.792Z,50.852703
2022-10-02T09:15:12.798Z,50.852921
2022-10-02T09:16:12.829Z,50.852776
2022-10-02T09:17:12.772Z,50.852787
2022-10-02T09:18:12.802Z,50.852760
2022-10-02T09:19:12.756Z,50.852814
2022-10-02T09:20:12.759Z,50.852821
2022-10-02T09:21:12.748Z,50.852951
2022-10-02T09:22:12.737Z,50.852951
2022-10-02T09:23:12.747Z,50.852951
2022-10-02T09:24:12.735Z,50.852951
2022-10-02T09:25:12.719Z,50.852951
2022-10-02T09:26:12.711Z,50.852951
2022-10-02T09:27:12.711Z,50.852951
2022-10-02T09:28:12.759Z,50.852951
2022-10-02T09:29:12.678Z,50.852951
2022-10-02T09:30:12.675Z,50.852951
2022-10-02T09:31:12.683Z,50.852951
2022-10-02T09:32:12.664Z,50.852951
2022-10-02T09:33:15.842Z,50.852951
2022-10-02T09:34:12.675Z,50.852951
2022-10-02T09:35:12.655Z,50.852951
2022-10-02T09:36:12.633Z,50.852951
2022-10-02T09:37:12.615Z,50.852951
2022-10-02T09:38:12.609Z,50.852951
2022-10-02T09:39:12.606Z,50.852951
2022-10-02T09:40:12.625Z,50.852951
2022-10-02T09:41:12.591Z,50.852951
2022-10-02T09:42:12.581Z,50.852539
2022-10-02T09:43:12.574Z,50.852573
2022-10-02T09:44:12.561Z,50.852627
2022-10-02T09:45:12.562Z,50.852627
2022-10-02T09:46:12.698Z,50.852818
2022-10-02T09:47:12.553Z,50.852680
2022-10-02T09:48:12.542Z,50.852715
2022-10-02T09:49:12.529Z,50.852802
2022-10-02T09:50:12.514Z,50.852760
2022-10-02T09:51:12.518Z,50.852608
2022-10-02T09:52:12.537Z,50.852386
2022-10-02T09:53:12.502Z,50.852451
2022-10-02T09:54:12.490Z,50.852764
2022-10-02T09:55:12.484Z,50.852833
2022-10-02T09:56:12.476Z,50.852959
2022-10-02T09:57:12.502Z,50.852779
2022-10-02T09:58:12.476Z,50.852776
2022-10-02T09:59:12.481Z,50.852764
2022-10-02T10:00:12.437Z,50.852627
2022-10-02T10:01:12.475Z,50.852726
2022-10-02T10:02:12.503Z,50.852825
2022-10-02T10:03:12.438Z,50.852497
2022-10-02T10:04:12.432Z,50.852581
2022-10-02T10:05:12.427Z,50.852657
2022-10-02T10:06:12.408Z,50.852707
2022-10-02T10:07:13.384Z,50.852730
2022-10-02T10:08:12.383Z,50.852741
2022-10-02T10:09:12.393Z,50.852692
2022-10-02T10:10:12.379Z,50.852646
2022-10-02T10:11:12.356Z,50.852680
2022-10-02T10:12:12.354Z,50.852650
2022-10-02T10:13:12.383Z,50.852688
2022-10-02T10:14:12.347Z,50.852673
2022-10-02T10:15:12.328Z,50.852695
2022-10-02T10:16:12.367Z,50.852684
2022-10-02T10:17:12.303Z,50.852581
2022-10-02T10:18:12.295Z,50.852608
2022-10-02T10:19:12.327Z,50.852684
2022-10-02T10:20:12.336Z,50.852753
2022-10-02T10:21:12.277Z,50.852837
2022-10-02T10:22:12.272Z,50.852730
2022-10-02T10:23:12.261Z,50.852688
2022-10-02T10:24:12.263Z,50.852684
2022-10-02T10:25:12.269Z,50.852734
2022-10-02T10:26:12.269Z,50.852734
2022-10-02T10:27:12.232Z,50.852749
2022-10-02T10:28:19.296Z,50.852695
2022-10-02T10:29:12.232Z,50.852810
2022-10-02T10:30:12.270Z,50.852760
2022-10-02T10:31:12.303Z,50.852749
2022-10-02T10:32:12.190Z,50.852726
2022-10-02T10:33:12.184Z,50.852798
2022-10-02T10:34:12.178Z,50.852768
2022-10-02T10:35:12.168Z,50.852783
2022-10-02T10:36:12.194Z,50.852715
2022-10-02T10:37:12.155Z,50.852768
2022-10-02T10:38:12.152Z,50.852787
2022-10-02T10:39:12.140Z,50.852806
2022-10-02T10:40:12.152Z,50.852684
2022-10-02T10:41:12.149Z,50.852760
2022-10-02T10:42:12.115Z,50.852551
2022-10-02T10:43:16.465Z,50.852554
2022-10-02T10:44:12.095Z,50.852734
2022-10-02T10:45:12.101Z,50.852772
2022-10-02T10:46:12.137Z,50.852684
2022-10-02T10:47:12.078Z,50.852852
2022-10-02T10:48:12.070Z,50.852631
2022-10-02T10:49:12.077Z,50.852722
2022-10-02T10:50:12.057Z,50.852821
2022-10-02T10:51:12.044Z,50.852589
2022-10-02T10:52:12.041Z,50.852821
2022-10-02T10:53:12.025Z,50.853035
2022-10-02T10:54:12.053Z,50.852737
2022-10-02T10:55:12.033Z,50.852604
2022-10-02T10:56:12.040Z,50.852779
2022-10-02T10:57:11.999Z,50.852856
2022-10-02T10:58:11.990Z,50.852898
2022-10-02T10:59:11.980Z,50.852932
2022-10-02T11:00:11.991Z,50.852951
2022-10-02T11:01:12.034Z,50.852829
2022-10-02T11:02:12.033Z,50.852692
2022-10-02T11:03:11.966Z,50.852734
2022-10-02T11:04:11.945Z,50.852726
2022-10-02T11:05:11.930Z,50.852821
2022-10-02T11:06:11.918Z,50.852814
2022-10-02T11:07:11.921Z,50.852840
2022-10-02T11:08:11.919Z,50.852688
2022-10-02T11:09:11.921Z,50.852772
2022-10-02T11:10:11.887Z,50.852684
2022-10-02T11:11:11.878Z,50.852482
2022-10-02T11:12:11.875Z,50.852787
2022-10-02T11:13:11.875Z,50.852551
2022-10-02T11:14:11.854Z,50.852776
2022-10-02T11:15:11.879Z,50.852711
2022-10-02T11:16:11.872Z,50.852711
2022-10-02T11:17:11.831Z,50.852711
2022-10-02T11:18:11.838Z,50.852711
2022-10-02T11:19:11.842Z,50.852711
2022-10-02T11:20:11.838Z,50.852711
2022-10-02T11:21:11.807Z,50.852711
2022-10-02T11:22:11.791Z,50.852711
2022-10-02T11:23:11.794Z,50.852711
2022-10-02T11:24:11.789Z,50.852711